WetterOnline ( https://www.wetteronline.de )

Wetter aktuell Hassel

Aktuelles Wetter: Genthin (39m)

6-stündlich | Neueste Meldungen
Ortszeit Temperatur Wetter
Sa, 25.05. 14:00 21.9° C leicht bewölkt
Sa, 25.05. 8:00 15.3° C bedeckt
Sa, 25.05. 2:00 15.2° C leichter Regen
Fr, 24.05. 20:00 16.9° C leichter Regen
Fr, 24.05. 14:00 23.7° C bewölkt
Fr, 24.05. 8:00 16.9° C wolkenlos
Fr, 24.05. 2:00 11.4° C wolkig
Do, 23.05. 20:00 20.8° C fast wolkenlos
Ortszeit Temperatur Wetter
Sa, 25.05. 15:30 23.0° C leicht bewölkt
Sa, 25.05. 15:20 23.0° C leicht bewölkt
Sa, 25.05. 15:10 23.0° C leicht bewölkt
Sa, 25.05. 15:00 21.7° C leicht bewölkt
Sa, 25.05. 14:50 21.7° C leicht bewölkt
Sa, 25.05. 14:40 22.6° C leicht bewölkt
Sa, 25.05. 14:30 22.3° C leicht bewölkt
Sa, 25.05. 14:00 21.9° C leicht bewölkt
Sa, 25.05. 13:30 20.1° C wolkig
Sa, 25.05. 13:00 18.9° C wolkig
Sa, 25.05. 12:30 18.6° C bewölkt
Ortszeit Relative Feuchte Sichtweite
Sa, 25.05. 14:00 58% 35 km
Sa, 25.05. 8:00 93% 11 km
Sa, 25.05. 2:00 96% 4.3 km
Fr, 24.05. 20:00 86% 17 km
Fr, 24.05. 14:00 42% 60 km
Fr, 24.05. 8:00 75% 25 km
Fr, 24.05. 2:00 89% 26 km
Do, 23.05. 20:00 51% 45 km
Ortszeit Relative Feuchte Sichtweite
Sa, 25.05. 15:30 53% 50 km
Sa, 25.05. 15:20 53% -
Sa, 25.05. 15:10 54% -
Sa, 25.05. 15:00 57% 40 km
Sa, 25.05. 14:50 57% -
Sa, 25.05. 14:40 53% -
Sa, 25.05. 14:30 52% 40 km
Sa, 25.05. 14:00 58% 35 km
Sa, 25.05. 13:30 68% 27 km
Sa, 25.05. 13:00 72% 27 km
Sa, 25.05. 12:30 74% 30 km
Ortszeit Niederschlagsmenge Niederschlagsart
Sa, 25.05. 14:00 0.1 l/m2 in 6 Std. Regen
Sa, 25.05. 8:00 25 l/m2 in 12 Std. Regen
Sa, 25.05. 2:00 24 l/m2 in 6 Std. Regen, Niederschlag
Fr, 24.05. 20:00 0.2 l/m2 in 12 Std. Regen
Fr, 24.05. 14:00 0.0 l/m2 in 6 Std. -
Fr, 24.05. 8:00 0.0 l/m2 in 12 Std. -
Fr, 24.05. 2:00 0.0 l/m2 in 6 Std. -
Do, 23.05. 20:00 0.0 l/m2 in 12 Std. -
Ortszeit Niederschlagsmenge Niederschlagsart
Sa, 25.05. 15:30 0.0 l/m2 in 30 Min -
Sa, 25.05. 15:20 keine Meldung -
Sa, 25.05. 15:10 keine Meldung -
Sa, 25.05. 15:00 0.0 l/m2 in 1 Std. -
Sa, 25.05. 14:50 keine Meldung -
Sa, 25.05. 14:40 keine Meldung -
Sa, 25.05. 14:30 0.0 l/m2 in 30 Min -
Sa, 25.05. 14:00 0.0 l/m2 in 1 Std. Regen
Sa, 25.05. 13:30 0.0 l/m2 in 30 Min -
Sa, 25.05. 13:00 <0.05 l/m2 in 1 Std. Regen
Sa, 25.05. 12:30 0.0 l/m2 in 30 Min -
Ortszeit Stärke Spitze Richtung
km/h Bft. km/h Grad Sektor
Sa, 25.05. 14:00 9 2 19 180° S
Sa, 25.05. 8:00 4 1 14 70° O
Sa, 25.05. 2:00 0 0 14 - -
Fr, 24.05. 20:00 4 1 47 190° S
Fr, 24.05. 14:00 18 3 36 110° O
Fr, 24.05. 8:00 4 1 7 50° NO
Fr, 24.05. 2:00 4 1 11 280° W
Do, 23.05. 20:00 6 1 30 330° NW
Ortszeit Stärke Spitze Richtung
km/h Bft. km/h Grad Sektor
Sa, 25.05. 15:30 6 1 19 210° SW
Sa, 25.05. 15:20 6 1 - 210° SW
Sa, 25.05. 15:10 7 2 - 150° SO
Sa, 25.05. 15:00 9 2 19 160° S
Sa, 25.05. 14:50 9 2 - 160° S
Sa, 25.05. 14:40 9 2 - 170° S
Sa, 25.05. 14:30 7 2 18 190° S
Sa, 25.05. 14:00 9 2 19 180° S
Sa, 25.05. 13:30 7 2 11 60° NO
Sa, 25.05. 13:00 6 1 17 160° S
Sa, 25.05. 12:30 11 2 18 140° SO
Ortszeit Untergrenze Bedeckung Gattung
total tief tief mittel hoch
Sa, 25.05. 14:00 870 m 3/8 3/8 - - -
Sa, 25.05. 8:00 120 m 8/8 8/8 - - -
Sa, 25.05. 2:00 120 m 8/8 8/8 - - -
Fr, 24.05. 20:00 1500 m 7/8 7/8 - - -
Fr, 24.05. 14:00 1500 m 8/8 7/8 - - -
Fr, 24.05. 8:00 - 0/8 0/8 - - -
Fr, 24.05. 2:00 8700 m 8/8 0/8 - - -
Do, 23.05. 20:00 2700 m 1/8 1/8 - - -
Ortszeit Bedeckungsgrad in Achtel und Wolkenuntergrenze
Sa, 25.05. 15:30 1(1140m) 3(1800m)
Sa, 25.05. 15:20 1(1140m) 2(1500m) 3(1800m)
Sa, 25.05. 15:10 4
Sa, 25.05. 15:00 3(1170m) 4(1470m)
Sa, 25.05. 14:50 3(1170m) 4(1470m)
Sa, 25.05. 14:40 3
Sa, 25.05. 14:30 1(1080m)
Sa, 25.05. 14:00 2(870m) 3(1320m)
Sa, 25.05. 13:30 1(810m) 4(1140m) 5(1320m)
Sa, 25.05. 13:00 1(1080m) 5(1800m)
Sa, 25.05. 12:30 2(570m) 7(990m) 7(1260m)
Ortszeit Luftdruck NN (hPa) Tendenz (hPa in 3 Std.)
Sa, 25.05. 14:00 1017 - 0,2
Sa, 25.05. 8:00 1017 + 0,1
Sa, 25.05. 2:00 1018 - 0,7
Fr, 24.05. 20:00 1018 + 0,7
Fr, 24.05. 14:00 1018 - 0,8
Fr, 24.05. 8:00 1019 + 0,3
Fr, 24.05. 2:00 1018 + 0,3
Do, 23.05. 20:00 1015 + 0,5
Ortszeit Luftdruck NN (hPa) Tendenz (hPa in 3 Std.)
Sa, 25.05. 15:30 1017 - 0,9
Sa, 25.05. 15:20 1017 keine Meldung
Sa, 25.05. 15:10 1017 keine Meldung
Sa, 25.05. 15:00 1017 - 0,7
Sa, 25.05. 14:50 1017 keine Meldung
Sa, 25.05. 14:40 1017 keine Meldung
Sa, 25.05. 14:30 1017 - 0,4
Sa, 25.05. 14:00 1017 - 0,2
Sa, 25.05. 13:30 1018 + 0,1
Sa, 25.05. 13:00 1018 + 0,5
Sa, 25.05. 12:30 1018 + 0,6
Ortszeit Schneehöhe (cm)
Sa, 25.05. 14:00 0
Sa, 25.05. 8:00 0
Sa, 25.05. 2:00 0
Fr, 24.05. 20:00 0
Fr, 24.05. 14:00 0
Fr, 24.05. 8:00 0
Fr, 24.05. 2:00 0
Do, 23.05. 20:00 0
Ortszeit Schneehöhe (cm)
Sa, 25.05. 15:30 0
Sa, 25.05. 15:20 0
Sa, 25.05. 15:10 -
Sa, 25.05. 15:00 0
Sa, 25.05. 14:50 0
Sa, 25.05. 14:40 -
Sa, 25.05. 14:30 0
Sa, 25.05. 14:00 0
Sa, 25.05. 13:30 0
Sa, 25.05. 13:00 0
Sa, 25.05. 12:30 0
Link zu dieser Seite / Seite empfehlen

Das Wetter in ...